• Join FlightAware (Why Join?)
  • Login
  • US Flag 
01:50AM EDT


 

Airport Tracker/Info


-or-


 

Live Flight TrackerFlight Track Log ✈ UCA1001 ✈ 24-Oct-2013 ✈ KSYR - KBGM

Flight Track Log - Related Links

Times and Time Zones

All times are in EDT time to prevent confusion due to time zone crossing. See the UCA1001 flight status page for this flight to view local times or setup timezone preferences in your user account.

Time Position Orientation Groundspeed Altitude Reporting Facility
EDT Latitude Longitude Course Direction KTS MPH feet Rate Location/Type
12:56AM 43.1078 -76.1189 271° West 108 124 1,400  Level Boston Center
12:57AM 43.1081 -76.1422 271° West 118 136 2,100 1,800 Climbing Boston Center
12:58AM 43.0797 -76.1828 226° Southwest 191 220 4,200 1,920 Climbing Boston Center
12:59AM 43.0275 -76.1633 165° South 209 241 6,000 1,620 Climbing Boston Center
12:59AM 43.0386 -76.1667 348° North 191 220 5,900  Descending Boston Center
01:00AM 42.9736 -76.1564 173° South 230 265 6,000  Climbing Boston Center
01:01AM 42.9008 -76.1386 170° South 263 303 6,000  Level Boston Center
01:01AM 42.8872 -76.1339 166° South 271 312 6,000  Level Boston Center
01:02AM 42.8289 -76.1208 171° South 265 305 6,000  Level Boston Center
01:02AM 42.8153 -76.1169 168° South 266 306 6,000  Level Boston Center
01:03AM 42.7575 -76.1064 172° South 262 302 6,000  Level Boston Center
01:03AM 42.7431 -76.1003 163° South 265 305 6,000  Level Boston Center
01:04AM 42.6833 -76.0878 171° South 268 308 6,000  Level Boston Center
01:04AM 42.6711 -76.0836 166° South 264 304 6,000  Level Boston Center
01:05AM 42.5983 -76.0675 171° South 261 300 6,000  Level Boston Center
01:05AM 42.5925 -76.0678 182° South 260 299 6,000  Level Boston Center
01:06AM 42.5281 -76.0531 170° South 258 297 6,000  Level Boston Center
01:07AM 42.4561 -76.0347 169° South 261 300 6,000  Level Boston Center
01:08AM 42.3889 -76.0056 162° South 258 297 6,000  Level Boston Center
01:09AM 42.3228 -75.9503 148° Southeast 274 315 6,000  Level Boston Center
01:10AM 42.2617 -75.9028 150° Southeast 273 314 6,000  Level Boston Center
01:11AM 42.2006 -75.8500 147° Southeast 266 306 6,000 -420 Level Boston Center
01:12AM 42.1589 -75.8450 175° South 170 196 5,200 -900 Descending Boston Center
01:13AM 42.1489 -75.8906 254° West 130 150 4,200 -1,200 Descending Boston Center
01:14AM 42.1531 -75.9283 278° West 107 123 2,900 -900 Descending Boston Center
01:15AM 42.1767 -75.9497 326° Northwest 106 122 2,400 -480 Descending Boston Center
01:16AM 42.2014 -75.9681 331° Northwest 106 122 2,000 -420 Descending Boston Center
01:18AM 42.2000 -75.9667 North  Level FlightAware Approximate